EZY86TC LXGB-EGCC
Flight info
| Callsign | EZY86TC |
|---|---|
| Flight time | N/A |
| Altitude | 34000 |
| Route | DCT PIMOS M985 MGA DCT BLN DCT MORAL DCT BEXID DCT VTB/N0454F360 DCT SIE DCT XERMA DCT ARLUN DCT BUGIX DCT UNGAS DCT DELOG DCT NOVAN DCT RUSIB DCT NOZHU/N0445F350 DCT SHIRI DCT TOJAQ DCT EPACE DCT ACCOP DCT MOCQO P16 AXCIS AXCIS1M |
| Aircraft | A320/M-SDE3FGHIRWY/LB1 |
Departure
| Time | 2026-05-04 12:38 |
|---|---|
| Airport | Gibraltar Airport (LXGB) |
Arrival
| Time | N/A |
|---|---|
| Airport | Manchester Airport (EGCC) |
| Time | Latitude | Longitude | Altitude | Speed | Heading |
|---|---|---|---|---|---|
| 2026-05-04 12:14 | 36.15305 | -5.34629 | 18 ft | 0 kts | 357° |
| 2026-05-04 12:31 | 36.15282 | -5.34627 | 18 ft | 4 kts | 357° |
| 2026-05-04 12:32 | 36.15261 | -5.34626 | 18 ft | 4 kts | 2° |
| 2026-05-04 12:32 | 36.15225 | -5.34656 | 20 ft | 3 kts | 87° |
| 2026-05-04 12:32 | 36.15225 | -5.34676 | 21 ft | 0 kts | 87° |
| 2026-05-04 12:35 | 36.15225 | -5.34675 | 21 ft | 1 kts | 87° |
| 2026-05-04 12:35 | 36.15226 | -5.34632 | 21 ft | 9 kts | 87° |
| 2026-05-04 12:35 | 36.15230 | -5.34525 | 18 ft | 16 kts | 87° |
| 2026-05-04 12:35 | 36.15235 | -5.34397 | 18 ft | 14 kts | 88° |
| 2026-05-04 12:36 | 36.15239 | -5.34283 | 18 ft | 12 kts | 88° |
| 2026-05-04 12:36 | 36.15196 | -5.34235 | 19 ft | 9 kts | 159° |
| 2026-05-04 12:36 | 36.15145 | -5.34202 | 16 ft | 8 kts | 107° |
| 2026-05-04 12:36 | 36.15147 | -5.34143 | 16 ft | 6 kts | 82° |
| 2026-05-04 12:37 | 36.15160 | -5.34105 | 18 ft | 4 kts | 59° |
| 2026-05-04 12:37 | 36.15183 | -5.34059 | 17 ft | 8 kts | 82° |
| 2026-05-04 12:37 | 36.15150 | -5.34042 | 16 ft | 5 kts | 223° |
| 2026-05-04 12:37 | 36.15147 | -5.34065 | 17 ft | 0 kts | 269° |
| 2026-05-04 12:38 | 36.15145 | -5.34154 | 16 ft | 42 kts | 268° |
| 2026-05-04 12:38 | 36.15122 | -5.34846 | 19 ft | 115 kts | 268° |
| 2026-05-04 12:38 | 36.15078 | -5.36026 | 291 ft | 144 kts | 268° |
| 2026-05-04 12:38 | 36.15047 | -5.37257 | 1092 ft | 142 kts | 269° |
| 2026-05-04 12:39 | 36.15002 | -5.38512 | 1500 ft | 157 kts | 268° |
| 2026-05-04 12:39 | 36.14863 | -5.39934 | 1730 ft | 177 kts | 251° |
| 2026-05-04 12:39 | 36.14018 | -5.41169 | 1928 ft | 207 kts | 214° |
| 2026-05-04 12:39 | 36.12546 | -5.41632 | 2179 ft | 241 kts | 185° |
| 2026-05-04 12:40 | 36.10805 | -5.41363 | 2653 ft | 263 kts | 166° |
| 2026-05-04 12:40 | 36.09075 | -5.40539 | 3444 ft | 267 kts | 160° |
| 2026-05-04 12:40 | 36.07355 | -5.39643 | 4297 ft | 269 kts | 160° |
| 2026-05-04 12:40 | 36.05658 | -5.38645 | 5120 ft | 275 kts | 149° |
| 2026-05-04 12:41 | 36.04330 | -5.36901 | 5827 ft | 287 kts | 122° |
| 2026-05-04 12:41 | 36.03726 | -5.34519 | 6485 ft | 298 kts | 94° |
| 2026-05-04 12:41 | 36.03981 | -5.31972 | 7161 ft | 302 kts | 73° |
| 2026-05-04 12:41 | 36.04618 | -5.29482 | 7853 ft | 306 kts | 70° |
| 2026-05-04 12:42 | 36.05307 | -5.26969 | 8545 ft | 310 kts | 70° |
| 2026-05-04 12:42 | 36.05991 | -5.24420 | 9247 ft | 314 kts | 71° |
| 2026-05-04 12:42 | 36.06669 | -5.21832 | 9940 ft | 319 kts | 71° |
| 2026-05-04 12:42 | 36.07358 | -5.19175 | 10332 ft | 334 kts | 72° |
| 2026-05-04 12:43 | 36.08091 | -5.16347 | 10469 ft | 357 kts | 72° |
| 2026-05-04 12:43 | 36.08856 | -5.13391 | 10713 ft | 373 kts | 72° |
| 2026-05-04 12:43 | 36.09651 | -5.10309 | 11256 ft | 379 kts | 72° |
| 2026-05-04 12:43 | 36.10453 | -5.07183 | 11881 ft | 383 kts | 72° |
| 2026-05-04 12:44 | 36.11263 | -5.04029 | 12517 ft | 386 kts | 72° |
| 2026-05-04 12:44 | 36.12081 | -5.00851 | 13133 ft | 390 kts | 72° |
| 2026-05-04 12:44 | 36.12907 | -4.97641 | 13752 ft | 393 kts | 72° |
| 2026-05-04 12:44 | 36.13777 | -4.94422 | 14294 ft | 397 kts | 68° |
| 2026-05-04 12:45 | 36.15043 | -4.91367 | 14769 ft | 402 kts | 56° |
| 2026-05-04 12:45 | 36.16770 | -4.88647 | 15271 ft | 403 kts | 44° |
| 2026-05-04 12:45 | 36.18887 | -4.86370 | 15774 ft | 404 kts | 32° |
| 2026-05-04 12:45 | 36.21251 | -4.84483 | 16289 ft | 406 kts | 28° |
| 2026-05-04 12:46 | 36.23653 | -4.82609 | 16785 ft | 410 kts | 28° |
| 2026-05-04 12:46 | 36.26075 | -4.80721 | 17289 ft | 413 kts | 28° |
| 2026-05-04 12:46 | 36.28518 | -4.78815 | 17798 ft | 417 kts | 28° |
| 2026-05-04 12:46 | 36.30985 | -4.76889 | 18299 ft | 420 kts | 28° |
| 2026-05-04 12:47 | 36.33468 | -4.74947 | 18737 ft | 424 kts | 28° |
| 2026-05-04 12:47 | 36.35972 | -4.72983 | 19171 ft | 428 kts | 28° |
| 2026-05-04 12:47 | 36.38495 | -4.70998 | 19598 ft | 431 kts | 28° |
| 2026-05-04 12:47 | 36.41033 | -4.68995 | 20057 ft | 435 kts | 28° |
| 2026-05-04 12:48 | 36.43592 | -4.66970 | 20523 ft | 437 kts | 28° |
| 2026-05-04 12:48 | 36.46166 | -4.64932 | 20952 ft | 440 kts | 28° |
| 2026-05-04 12:48 | 36.48762 | -4.62880 | 21368 ft | 444 kts | 28° |
| 2026-05-04 12:48 | 36.51377 | -4.60819 | 21785 ft | 447 kts | 28° |
| 2026-05-04 12:49 | 36.54017 | -4.58737 | 22191 ft | 450 kts | 28° |
| 2026-05-04 12:49 | 36.56667 | -4.56641 | 22543 ft | 454 kts | 28° |
| 2026-05-04 12:49 | 36.59349 | -4.54517 | 22889 ft | 459 kts | 28° |
| 2026-05-04 12:49 | 36.62055 | -4.52372 | 23249 ft | 462 kts | 28° |
| 2026-05-04 12:50 | 36.63852 | -4.50947 | 23479 ft | 464 kts | 28° |
| 2026-05-04 12:50 | 36.67512 | -4.48042 | 23916 ft | 468 kts | 28° |
| 2026-05-04 12:50 | 36.70267 | -4.45857 | 24235 ft | 470 kts | 28° |
| 2026-05-04 12:50 | 36.72099 | -4.44405 | 24436 ft | 472 kts | 27° |
| 2026-05-04 12:51 | 36.75783 | -4.41482 | 24821 ft | 476 kts | 27° |
| 2026-05-04 12:51 | 36.78577 | -4.39258 | 25127 ft | 478 kts | 27° |
| 2026-05-04 12:51 | 36.80481 | -4.37750 | 25331 ft | 479 kts | 25° |
| 2026-05-04 12:51 | 36.84415 | -4.35321 | 25703 ft | 476 kts | 18° |
| 2026-05-04 12:52 | 36.86472 | -4.34193 | 25861 ft | 479 kts | 17° |
| 2026-05-04 12:52 | 36.90528 | -4.31979 | 26236 ft | 482 kts | 17° |
| 2026-05-04 12:52 | 36.92606 | -4.30847 | 26497 ft | 482 kts | 17° |
| 2026-05-04 12:52 | 36.95685 | -4.29168 | 26811 ft | 483 kts | 17° |
| 2026-05-04 12:53 | 36.98770 | -4.27485 | 27095 ft | 485 kts | 17° |
| 2026-05-04 12:53 | 37.01871 | -4.25787 | 27354 ft | 487 kts | 17° |
| 2026-05-04 12:53 | 37.04986 | -4.24079 | 27600 ft | 489 kts | 17° |
| 2026-05-04 12:53 | 37.08107 | -4.22366 | 27860 ft | 492 kts | 17° |
| 2026-05-04 12:54 | 37.11246 | -4.20638 | 28112 ft | 494 kts | 17° |
| 2026-05-04 12:54 | 37.14367 | -4.18917 | 28372 ft | 496 kts | 17° |
| 2026-05-04 12:54 | 37.17529 | -4.17173 | 28649 ft | 498 kts | 17° |
| 2026-05-04 12:54 | 37.20704 | -4.15423 | 28921 ft | 499 kts | 17° |
| 2026-05-04 12:55 | 37.23884 | -4.13672 | 29142 ft | 500 kts | 17° |
| 2026-05-04 12:55 | 37.27076 | -4.11909 | 29337 ft | 502 kts | 17° |
| 2026-05-04 12:55 | 37.30279 | -4.10135 | 29521 ft | 504 kts | 17° |
| 2026-05-04 12:55 | 37.33493 | -4.08351 | 29740 ft | 505 kts | 17° |
| 2026-05-04 12:56 | 37.36708 | -4.06565 | 29969 ft | 505 kts | 17° |
| 2026-05-04 12:56 | 37.39924 | -4.04778 | 30229 ft | 505 kts | 17° |
| 2026-05-04 12:56 | 37.43139 | -4.02991 | 30516 ft | 504 kts | 17° |
| 2026-05-04 12:56 | 37.46340 | -4.01209 | 30782 ft | 503 kts | 17° |
| 2026-05-04 12:57 | 37.49534 | -3.99428 | 31038 ft | 502 kts | 17° |
| 2026-05-04 12:57 | 37.52725 | -3.97648 | 31252 ft | 502 kts | 18° |
| 2026-05-04 12:57 | 37.55922 | -3.95861 | 31448 ft | 502 kts | 17° |
| 2026-05-04 12:57 | 37.59111 | -3.94078 | 31689 ft | 502 kts | 17° |
| 2026-05-04 12:58 | 37.62302 | -3.92296 | 31926 ft | 501 kts | 17° |
| 2026-05-04 12:58 | 37.65486 | -3.90520 | 32193 ft | 501 kts | 18° |
| 2026-05-04 12:58 | 37.68670 | -3.88744 | 32451 ft | 500 kts | 18° |
| 2026-05-04 12:58 | 37.71849 | -3.86968 | 32674 ft | 499 kts | 18° |
| 2026-05-04 12:59 | 37.75032 | -3.85183 | 32920 ft | 499 kts | 18° |
| 2026-05-04 12:59 | 37.78201 | -3.83403 | 33135 ft | 499 kts | 18° |
| 2026-05-04 12:59 | 37.81373 | -3.81620 | 33337 ft | 499 kts | 18° |
| 2026-05-04 12:59 | 37.84510 | -3.79856 | 33532 ft | 499 kts | 18° |
| 2026-05-04 13:00 | 37.87683 | -3.78070 | 33731 ft | 499 kts | 18° |
| 2026-05-04 13:00 | 37.90855 | -3.76285 | 33962 ft | 499 kts | 18° |
| 2026-05-04 13:00 | 37.94023 | -3.74500 | 34011 ft | 498 kts | 18° |
| 2026-05-04 13:01 | 38.00339 | -3.70932 | 33999 ft | 496 kts | 18° |
| 2026-05-04 13:01 | 38.06651 | -3.67354 | 33995 ft | 496 kts | 18° |
| 2026-05-04 13:02 | 38.12972 | -3.63858 | 34000 ft | 492 kts | 13° |
| 2026-05-04 13:02 | 38.19530 | -3.62042 | 33992 ft | 475 kts | 356° |
| 2026-05-04 13:03 | 38.26121 | -3.61427 | 33986 ft | 475 kts | 356° |
| 2026-05-04 13:03 | 38.32716 | -3.60803 | 33983 ft | 475 kts | 356° |
| 2026-05-04 13:04 | 38.39315 | -3.60164 | 33982 ft | 475 kts | 356° |
| 2026-05-04 13:04 | 38.45912 | -3.59520 | 33981 ft | 475 kts | 356° |
| 2026-05-04 13:05 | 38.52499 | -3.58877 | 33982 ft | 475 kts | 356° |
| 2026-05-04 13:05 | 38.59087 | -3.58239 | 33981 ft | 475 kts | 356° |
| 2026-05-04 13:06 | 38.65680 | -3.57595 | 34000 ft | 475 kts | 357° |
| 2026-05-04 13:06 | 38.72268 | -3.56949 | 33988 ft | 475 kts | 356° |
| 2026-05-04 13:07 | 38.78852 | -3.56306 | 33982 ft | 475 kts | 356° |
| 2026-05-04 13:07 | 38.85397 | -3.55664 | 34012 ft | 475 kts | 356° |
| 2026-05-04 13:08 | 38.91982 | -3.55023 | 34003 ft | 474 kts | 356° |
| 2026-05-04 13:08 | 38.98562 | -3.54364 | 33995 ft | 474 kts | 356° |
| 2026-05-04 13:09 | 39.05140 | -3.53715 | 33987 ft | 474 kts | 356° |
| 2026-05-04 13:09 | 39.11726 | -3.53059 | 34005 ft | 474 kts | 356° |
| 2026-05-04 13:10 | 39.18308 | -3.52399 | 33984 ft | 474 kts | 357° |
| 2026-05-04 13:10 | 39.24886 | -3.51741 | 33976 ft | 474 kts | 356° |
| 2026-05-04 13:11 | 39.31465 | -3.51087 | 34018 ft | 474 kts | 356° |
| 2026-05-04 13:11 | 39.38034 | -3.50436 | 33998 ft | 473 kts | 356° |
| 2026-05-04 13:12 | 39.44596 | -3.49783 | 33985 ft | 473 kts | 356° |
| 2026-05-04 13:12 | 39.51158 | -3.49123 | 33974 ft | 472 kts | 356° |
| 2026-05-04 13:13 | 39.57715 | -3.48457 | 33969 ft | 472 kts | 356° |
| 2026-05-04 13:13 | 39.64254 | -3.47791 | 33960 ft | 471 kts | 356° |
| 2026-05-04 13:14 | 39.70794 | -3.47142 | 33961 ft | 472 kts | 356° |
| 2026-05-04 13:14 | 39.77343 | -3.46515 | 33986 ft | 469 kts | 353° |
| 2026-05-04 13:15 | 39.83770 | -3.46969 | 33973 ft | 461 kts | 347° |
| 2026-05-04 13:15 | 39.90171 | -3.47627 | 33969 ft | 461 kts | 347° |
| 2026-05-04 13:16 | 39.96572 | -3.48276 | 33965 ft | 461 kts | 347° |
| 2026-05-04 13:16 | 40.02919 | -3.48922 | 33972 ft | 459 kts | 348° |
| 2026-05-04 13:17 | 40.09284 | -3.49569 | 33971 ft | 459 kts | 348° |
| 2026-05-04 13:17 | 40.15649 | -3.50213 | 33965 ft | 458 kts | 348° |
| 2026-05-04 13:18 | 40.22008 | -3.50863 | 33983 ft | 458 kts | 348° |
| 2026-05-04 13:18 | 40.28373 | -3.51510 | 33973 ft | 458 kts | 348° |
| 2026-05-04 13:19 | 40.34734 | -3.52160 | 33968 ft | 458 kts | 348° |
| 2026-05-04 13:19 | 40.41090 | -3.52811 | 33969 ft | 458 kts | 348° |
| 2026-05-04 13:20 | 40.47449 | -3.53457 | 33993 ft | 459 kts | 349° |
| 2026-05-04 13:20 | 40.53821 | -3.54107 | 33984 ft | 459 kts | 349° |
| 2026-05-04 13:21 | 40.60189 | -3.54767 | 33977 ft | 459 kts | 349° |
| 2026-05-04 13:21 | 40.66565 | -3.55424 | 33974 ft | 459 kts | 349° |
| 2026-05-04 13:22 | 40.72934 | -3.56080 | 33974 ft | 459 kts | 349° |
| 2026-05-04 13:22 | 40.79271 | -3.56730 | 33971 ft | 459 kts | 349° |
| 2026-05-04 13:23 | 40.85637 | -3.57392 | 33981 ft | 459 kts | 349° |
| 2026-05-04 13:23 | 40.92016 | -3.58058 | 33975 ft | 459 kts | 349° |
| 2026-05-04 13:24 | 40.98389 | -3.58724 | 33978 ft | 459 kts | 349° |
| 2026-05-04 13:24 | 41.04766 | -3.59382 | 33983 ft | 460 kts | 349° |
| 2026-05-04 13:25 | 41.14347 | -3.60389 | 34000 ft | 460 kts | 350° |
| 2026-05-04 13:25 | 41.20771 | -3.60806 | 33999 ft | 463 kts | 353° |
| 2026-05-04 13:26 | 41.27191 | -3.60875 | 33997 ft | 464 kts | 354° |
| 2026-05-04 13:26 | 41.33642 | -3.60929 | 34015 ft | 464 kts | 354° |
| 2026-05-04 13:27 | 41.40091 | -3.61075 | 34003 ft | 463 kts | 353° |
| 2026-05-04 13:27 | 41.46537 | -3.61262 | 33997 ft | 463 kts | 353° |
| 2026-05-04 13:28 | 41.52973 | -3.61429 | 34021 ft | 463 kts | 354° |
| 2026-05-04 13:28 | 41.59424 | -3.61431 | 34010 ft | 464 kts | 355° |
| 2026-05-04 13:29 | 41.65881 | -3.61373 | 34004 ft | 464 kts | 355° |
| 2026-05-04 13:29 | 41.72341 | -3.61345 | 34015 ft | 463 kts | 355° |
| 2026-05-04 13:30 | 41.78765 | -3.61349 | 34005 ft | 463 kts | 355° |
| 2026-05-04 13:30 | 41.85211 | -3.61365 | 34000 ft | 463 kts | 355° |
| 2026-05-04 13:31 | 41.91662 | -3.61372 | 33991 ft | 463 kts | 355° |
| 2026-05-04 13:31 | 41.98116 | -3.61373 | 34012 ft | 464 kts | 355° |
| 2026-05-04 13:32 | 42.04567 | -3.61418 | 34011 ft | 463 kts | 354° |
| 2026-05-04 13:32 | 42.11008 | -3.61797 | 34003 ft | 462 kts | 352° |
| 2026-05-04 13:33 | 42.17436 | -3.62321 | 34008 ft | 462 kts | 352° |
| 2026-05-04 13:33 | 42.23821 | -3.62782 | 34029 ft | 463 kts | 353° |
| 2026-05-04 13:34 | 42.30261 | -3.63192 | 34032 ft | 463 kts | 353° |
| 2026-05-04 13:34 | 42.36695 | -3.63700 | 34052 ft | 461 kts | 348° |
| 2026-05-04 13:35 | 42.46212 | -3.65586 | 34027 ft | 460 kts | 347° |
| 2026-05-04 13:36 | 42.52549 | -3.66866 | 34019 ft | 460 kts | 347° |
| 2026-05-04 13:36 | 42.58891 | -3.68129 | 34028 ft | 461 kts | 348° |
| 2026-05-04 13:37 | 42.64169 | -3.69174 | 34023 ft | 461 kts | 348° |
| 2026-05-04 13:37 | 42.70527 | -3.70427 | 34018 ft | 462 kts | 348° |
| 2026-05-04 13:38 | 42.76908 | -3.71535 | 34020 ft | 462 kts | 349° |
| 2026-05-04 13:38 | 42.83299 | -3.72575 | 34026 ft | 462 kts | 349° |
| 2026-05-04 13:39 | 42.89687 | -3.73639 | 34025 ft | 462 kts | 349° |
| 2026-05-04 13:39 | 42.96034 | -3.74731 | 34035 ft | 462 kts | 349° |
| 2026-05-04 13:40 | 43.02454 | -3.75844 | 34037 ft | 462 kts | 349° |
| 2026-05-04 13:40 | 43.08790 | -3.76935 | 34035 ft | 462 kts | 349° |
| 2026-05-04 13:41 | 43.15177 | -3.78033 | 34028 ft | 462 kts | 349° |
| 2026-05-04 13:41 | 43.21561 | -3.79138 | 34038 ft | 463 kts | 349° |
| 2026-05-04 13:42 | 43.31151 | -3.80800 | 34026 ft | 463 kts | 349° |
| 2026-05-04 13:42 | 43.37545 | -3.81912 | 34042 ft | 463 kts | 349° |
| 2026-05-04 13:43 | 43.43935 | -3.83020 | 34037 ft | 463 kts | 349° |
| 2026-05-04 13:43 | 43.50327 | -3.84135 | 34033 ft | 463 kts | 349° |
| 2026-05-04 13:44 | 43.56718 | -3.85256 | 34048 ft | 463 kts | 349° |
| 2026-05-04 13:44 | 43.63109 | -3.86373 | 34036 ft | 463 kts | 350° |
| 2026-05-04 13:45 | 43.69509 | -3.87497 | 34025 ft | 463 kts | 350° |
| 2026-05-04 13:45 | 43.75364 | -3.88532 | 34023 ft | 463 kts | 350° |
| 2026-05-04 13:46 | 43.81762 | -3.89663 | 34019 ft | 463 kts | 350° |
| 2026-05-04 13:46 | 43.88122 | -3.90784 | 34009 ft | 464 kts | 350° |
| 2026-05-04 13:47 | 43.94524 | -3.91909 | 34006 ft | 464 kts | 350° |
| 2026-05-04 13:47 | 44.00926 | -3.93050 | 34006 ft | 464 kts | 350° |
| 2026-05-04 13:48 | 44.07347 | -3.94189 | 34006 ft | 465 kts | 350° |
| 2026-05-04 13:48 | 44.13771 | -3.95331 | 34006 ft | 466 kts | 350° |
| 2026-05-04 13:49 | 44.20204 | -3.96481 | 34012 ft | 466 kts | 350° |
| 2026-05-04 13:49 | 44.26640 | -3.97643 | 34009 ft | 467 kts | 350° |
| 2026-05-04 13:50 | 44.33109 | -3.98576 | 34010 ft | 469 kts | 358° |
| 2026-05-04 13:50 | 44.39615 | -3.97815 | 34009 ft | 470 kts | 4° |
| 2026-05-04 13:51 | 44.46093 | -3.96903 | 34007 ft | 470 kts | 4° |
| 2026-05-04 13:51 | 44.52604 | -3.95998 | 34005 ft | 470 kts | 4° |
| 2026-05-04 13:52 | 44.62377 | -3.94620 | 34008 ft | 470 kts | 5° |